Raceland, Louisiana
Current Conditions -  °F | °C
As of 10:47 AM on Friday 24 Oct 2014 (Local Time) from KHUM Reporting Station
Clear Clear  
Wind Chill: 70°   Ceiling: Unl
Heat Index: 70°   Visibility: 7mi
Dew Point: 52°   Wind: 8mph
Humidity: 53%   Direction: 10°N
Pressure: 30.12"   Gusts: NA
Location:  29.73°N, 90.61°W
Report Text: KHUM 241547Z 01007KT 7SM SKC 21/11 A3012 RMK ATIS BRAVO VA RY36 ST
Loading
Personal Weather Stations






























Interactive Weather Map
Tropical Storm Tracking
New forecast layout! Learn more

10-Day Weather Forecast

Advertisements
Track Severe Weather on mobile